Hauptseite
METAR-TAF:

METAR-TAF

Flughäfen :

Flughafen Caen-Carpiquet

Caen, Frankreich

Breite: 49-11N, Länge: 000-27W, Höhe: 78 m

Beobachtung

Neuester Wetterbericht von vor 37 Minuten, um 01:30 UTC
Wind 6 kt aus Süd/Südwest
Temperatur 13°C
Luftfeuchtigkeit 100%
Luftdruck 1023 hPa
Sichtweite 10 km oder mehr
keine Wolken unter 1500 m und keine Kumulonimbus oder Gewitterwolken

METAR: LFRK 190130Z AUTO 21006KT CAVOK 13/13 Q1023

Zeit: 04:07 (02:07 UTC)

Prognose

Neuester Wetterbericht von vor 12 Stunden und 7 Minuten, um 14:00 UTC
Gültige Prognose vom 18 um 15 UTC bis 18 um 24 UTC
Wind 8 kt aus West
Sichtweite 10 km oder mehr
Durchbrochene Bewölkung in der Höhe von 3000 ft

TAF: LFRK 181400Z 1815/1824 28008KT 9999 BKN030

Wetterbeobachtungen und Prognosen von mehr als 4000 Flughäfen (METAR und TAF Bericht).

Die verfügbaren Stationen werden durch gelbe und rote Markierungen auf der Karte dargestellt.

Führen Sie die Maus auf sie, um den Namen der Station zu sehen.

Darauf klicken, um die Beobachtung von Wetterbeobachtungen und Prognosen zu sehen.

Um die Karte zu ändern : klicken Sie auf den grünen Tasten mit einem schwarzen Kreuz Zum Vergrößern, auf den grünen Button mit einem Gedankenstrich zu verkleinern, oder auf die grünen Pfeile für benachbarte Karten.


METAR-TAF: